sensor_id;sensor_type;location;lat;lon;timestamp;pressure;altitude;pressure_sealevel;temperature;humidity
64352;BME280;50680;52.626;-8.668;2022-12-10T00:00:42;101211.16;;;-4.82;100.00
64352;BME280;50680;52.626;-8.668;2022-12-10T00:03:09;101214.63;;;-4.75;100.00
64352;BME280;50680;52.626;-8.668;2022-12-10T00:05:36;101210.41;;;-4.73;100.00
64352;BME280;50680;52.626;-8.668;2022-12-10T00:08:03;101206.94;;;-4.77;100.00
64352;BME280;50680;52.626;-8.668;2022-12-10T00:10:30;101201.75;;;-4.81;100.00
64352;BME280;50680;52.626;-8.668;2022-12-10T00:12:56;101191.47;;;-4.87;100.00
64352;BME280;50680;52.626;-8.668;2022-12-10T00:15:23;101198.22;;;-4.94;100.00
64352;BME280;50680;52.626;-8.668;2022-12-10T00:17:50;101193.81;;;-5.04;100.00
64352;BME280;50680;52.626;-8.668;2022-12-10T00:20:17;101206.56;;;-5.07;100.00
64352;BME280;50680;52.626;-8.668;2022-12-10T00:22:43;101212.53;;;-5.07;100.00
64352;BME280;50680;52.626;-8.668;2022-12-10T00:25:10;101208.31;;;-5.05;100.00
64352;BME280;50680;52.626;-8.668;2022-12-10T00:27:37;101199.75;;;-5.05;100.00
64352;BME280;50680;52.626;-8.668;2022-12-10T00:30:04;101200.50;;;-5.14;100.00
64352;BME280;50680;52.626;-8.668;2022-12-10T00:32:32;101198.66;;;-5.24;100.00
64352;BME280;50680;52.626;-8.668;2022-12-10T00:34:59;101202.75;;;-5.39;100.00
64352;BME280;50680;52.626;-8.668;2022-12-10T00:37:26;101202.59;;;-5.50;100.00
64352;BME280;50680;52.626;-8.668;2022-12-10T00:39:52;101214.34;;;-5.61;100.00
64352;BME280;50680;52.626;-8.668;2022-12-10T00:42:19;101205.81;;;-5.63;100.00
64352;BME280;50680;52.626;-8.668;2022-12-10T00:44:46;101221.13;;;-5.63;100.00
64352;BME280;50680;52.626;-8.668;2022-12-10T00:47:13;101216.84;;;-5.65;100.00
64352;BME280;50680;52.626;-8.668;2022-12-10T00:49:40;101216.78;;;-5.69;100.00
64352;BME280;50680;52.626;-8.668;2022-12-10T00:52:06;101209.06;;;-5.72;100.00
64352;BME280;50680;52.626;-8.668;2022-12-10T00:54:33;101203.75;;;-5.86;100.00
64352;BME280;50680;52.626;-8.668;2022-12-10T00:57:00;101203.63;;;-5.95;100.00
64352;BME280;50680;52.626;-8.668;2022-12-10T00:59:27;101200.19;;;-5.98;100.00
64352;BME280;50680;52.626;-8.668;2022-12-10T01:01:54;101198.34;;;-6.06;100.00
64352;BME280;50680;52.626;-8.668;2022-12-10T01:04:21;101194.84;;;-6.12;100.00
64352;BME280;50680;52.626;-8.668;2022-12-10T01:06:52;101204.09;;;-6.19;100.00
64352;BME280;50680;52.626;-8.668;2022-12-10T01:09:22;101204.09;;;-6.19;100.00
64352;BME280;50680;52.626;-8.668;2022-12-10T01:11:50;101203.31;;;-6.15;100.00
64352;BME280;50680;52.626;-8.668;2022-12-10T01:14:23;101194.78;;;-6.17;100.00
64352;BME280;50680;52.626;-8.668;2022-12-10T01:16:54;101185.94;;;-6.36;100.00
64352;BME280;50680;52.626;-8.668;2022-12-10T01:19:21;101200.47;;;-6.32;100.00
64352;BME280;50680;52.626;-8.668;2022-12-10T01:21:52;101202.09;;;-6.35;100.00
64352;BME280;50680;52.626;-8.668;2022-12-10T01:24:21;101201.13;;;-6.42;100.00
64352;BME280;50680;52.626;-8.668;2022-12-10T01:26:48;101194.16;;;-6.51;100.00
64352;BME280;50680;52.626;-8.668;2022-12-10T01:29:15;101199.13;;;-6.58;100.00
64352;BME280;50680;52.626;-8.668;2022-12-10T01:31:42;101192.22;;;-6.66;100.00
64352;BME280;50680;52.626;-8.668;2022-12-10T01:34:12;101193.00;;;-6.68;100.00
64352;BME280;50680;52.626;-8.668;2022-12-10T01:36:41;101188.66;;;-6.74;100.00
64352;BME280;50680;52.626;-8.668;2022-12-10T01:39:10;101193.69;;;-6.77;100.00
64352;BME280;50680;52.626;-8.668;2022-12-10T01:41:50;101191.09;;;-6.78;100.00
64352;BME280;50680;52.626;-8.668;2022-12-10T01:46:49;101191.84;;;-6.84;100.00
64352;BME280;50680;52.626;-8.668;2022-12-10T01:51:54;101197.69;;;-6.90;100.00
64352;BME280;50680;52.626;-8.668;2022-12-10T01:54:24;101204.50;;;-6.89;100.00
64352;BME280;50680;52.626;-8.668;2022-12-10T01:56:59;101190.03;;;-6.90;100.00
64352;BME280;50680;52.626;-8.668;2022-12-10T01:59:27;101193.38;;;-6.92;100.00
64352;BME280;50680;52.626;-8.668;2022-12-10T02:02:05;101190.75;;;-6.97;100.00
64352;BME280;50680;52.626;-8.668;2022-12-10T02:04:55;101182.16;;;-7.02;100.00
64352;BME280;50680;52.626;-8.668;2022-12-10T02:07:39;101178.59;;;-7.10;100.00
64352;BME280;50680;52.626;-8.668;2022-12-10T02:10:25;101175.16;;;-7.12;100.00
64352;BME280;50680;52.626;-8.668;2022-12-10T02:13:14;101180.25;;;-7.12;100.00
64352;BME280;50680;52.626;-8.668;2022-12-10T02:15:48;101180.28;;;-7.11;100.00
64352;BME280;50680;52.626;-8.668;2022-12-10T02:20:52;101171.97;;;-7.02;100.00
64352;BME280;50680;52.626;-8.668;2022-12-10T02:23:26;101175.22;;;-7.08;100.00
64352;BME280;50680;52.626;-8.668;2022-12-10T02:26:32;101171.75;;;-7.11;100.00
64352;BME280;50680;52.626;-8.668;2022-12-10T02:31:52;101180.19;;;-7.15;100.00
64352;BME280;50680;52.626;-8.668;2022-12-10T02:34:22;101182.72;;;-7.15;100.00
64352;BME280;50680;52.626;-8.668;2022-12-10T02:36:51;101183.63;;;-7.13;100.00
64352;BME280;50680;52.626;-8.668;2022-12-10T02:39:24;101174.19;;;-7.18;100.00
64352;BME280;50680;52.626;-8.668;2022-12-10T02:41:54;101174.94;;;-7.23;100.00
64352;BME280;50680;52.626;-8.668;2022-12-10T02:44:22;101182.50;;;-7.26;100.00
64352;BME280;50680;52.626;-8.668;2022-12-10T02:46:53;101164.66;;;-7.28;100.00
64352;BME280;50680;52.626;-8.668;2022-12-10T02:49:22;101165.41;;;-7.30;100.00
64352;BME280;50680;52.626;-8.668;2022-12-10T02:51:51;101159.41;;;-7.34;100.00
64352;BME280;50680;52.626;-8.668;2022-12-10T02:57:20;101162.59;;;-7.44;100.00
64352;BME280;50680;52.626;-8.668;2022-12-10T03:05:30;101158.94;;;-7.16;100.00
64352;BME280;50680;52.626;-8.668;2022-12-10T03:08:11;101162.91;;;-6.86;100.00
64352;BME280;50680;52.626;-8.668;2022-12-10T03:10:46;101160.41;;;-6.85;100.00
64352;BME280;50680;52.626;-8.668;2022-12-10T03:13:16;101151.75;;;-6.93;100.00
64352;BME280;50680;52.626;-8.668;2022-12-10T03:15:45;101156.78;;;-6.96;100.00
64352;BME280;50680;52.626;-8.668;2022-12-10T03:18:15;101154.13;;;-7.02;100.00
64352;BME280;50680;52.626;-8.668;2022-12-10T03:20:45;101143.66;;;-7.16;100.00
64352;BME280;50680;52.626;-8.668;2022-12-10T03:23:15;101150.47;;;-7.15;100.00
64352;BME280;50680;52.626;-8.668;2022-12-10T03:25:44;101149.66;;;-7.12;100.00
64352;BME280;50680;52.626;-8.668;2022-12-10T03:28:14;101148.00;;;-7.10;100.00
64352;BME280;50680;52.626;-8.668;2022-12-10T03:30:42;101143.78;;;-7.08;100.00
64352;BME280;50680;52.626;-8.668;2022-12-10T03:33:10;101142.91;;;-7.10;100.00
64352;BME280;50680;52.626;-8.668;2022-12-10T03:35:38;101141.25;;;-7.08;100.00
64352;BME280;50680;52.626;-8.668;2022-12-10T03:38:06;101136.22;;;-7.05;100.00
64352;BME280;50680;52.626;-8.668;2022-12-10T03:40:33;101147.28;;;-7.03;100.00
64352;BME280;50680;52.626;-8.668;2022-12-10T03:43:00;101143.09;;;-7.01;100.00
64352;BME280;50680;52.626;-8.668;2022-12-10T03:45:27;101145.63;;;-7.01;100.00
64352;BME280;50680;52.626;-8.668;2022-12-10T03:47:53;101141.44;;;-6.97;100.00
64352;BME280;50680;52.626;-8.668;2022-12-10T03:50:20;101142.31;;;-6.98;100.00
64352;BME280;50680;52.626;-8.668;2022-12-10T03:52:47;101142.38;;;-6.95;100.00
64352;BME280;50680;52.626;-8.668;2022-12-10T03:55:14;101136.38;;;-6.96;100.00
64352;BME280;50680;52.626;-8.668;2022-12-10T03:57:41;101131.28;;;-6.96;100.00
64352;BME280;50680;52.626;-8.668;2022-12-10T04:00:09;101139.81;;;-6.94;100.00
64352;BME280;50680;52.626;-8.668;2022-12-10T04:02:36;101127.97;;;-6.93;100.00
64352;BME280;50680;52.626;-8.668;2022-12-10T04:05:03;101121.97;;;-6.95;100.00
64352;BME280;50680;52.626;-8.668;2022-12-10T04:07:31;101118.47;;;-6.99;100.00
64352;BME280;50680;52.626;-8.668;2022-12-10T04:09:58;101122.75;;;-6.98;100.00
64352;BME280;50680;52.626;-8.668;2022-12-10T04:12:25;101117.69;;;-6.96;100.00
64352;BME280;50680;52.626;-8.668;2022-12-10T04:14:51;101124.50;;;-6.97;100.00
64352;BME280;50680;52.626;-8.668;2022-12-10T04:17:37;101113.34;;;-7.02;100.00
64352;BME280;50680;52.626;-8.668;2022-12-10T04:20:04;101110.66;;;-7.08;100.00
64352;BME280;50680;52.626;-8.668;2022-12-10T04:22:31;101108.00;;;-7.16;100.00
64352;BME280;50680;52.626;-8.668;2022-12-10T04:25:17;101112.03;;;-7.26;100.00
64352;BME280;50680;52.626;-8.668;2022-12-10T04:28:02;101113.56;;;-7.34;100.00
64352;BME280;50680;52.626;-8.668;2022-12-10T04:30:29;101114.34;;;-7.38;100.00
64352;BME280;50680;52.626;-8.668;2022-12-10T04:32:56;101116.06;;;-7.35;100.00
64352;BME280;50680;52.626;-8.668;2022-12-10T04:35:22;101113.44;;;-7.40;100.00
64352;BME280;50680;52.626;-8.668;2022-12-10T04:37:49;101116.75;;;-7.44;100.00
64352;BME280;50680;52.626;-8.668;2022-12-10T04:40:16;101114.97;;;-7.48;100.00
64352;BME280;50680;52.626;-8.668;2022-12-10T04:42:43;101109.78;;;-7.53;100.00
64352;BME280;50680;52.626;-8.668;2022-12-10T04:45:10;101095.06;;;-7.68;100.00
64352;BME280;50680;52.626;-8.668;2022-12-10T04:47:36;101110.47;;;-7.60;100.00
64352;BME280;50680;52.626;-8.668;2022-12-10T04:50:03;101107.00;;;-7.64;100.00
64352;BME280;50680;52.626;-8.668;2022-12-10T04:52:31;101104.34;;;-7.68;100.00
64352;BME280;50680;52.626;-8.668;2022-12-10T04:54:57;101106.84;;;-7.71;100.00
64352;BME280;50680;52.626;-8.668;2022-12-10T04:57:24;101108.41;;;-7.78;100.00
64352;BME280;50680;52.626;-8.668;2022-12-10T04:59:51;101116.19;;;-7.70;100.00
64352;BME280;50680;52.626;-8.668;2022-12-10T05:02:18;101120.66;;;-7.60;100.00
64352;BME280;50680;52.626;-8.668;2022-12-10T05:04:44;101113.06;;;-7.59;100.00
64352;BME280;50680;52.626;-8.668;2022-12-10T05:07:11;101107.88;;;-7.62;100.00
64352;BME280;50680;52.626;-8.668;2022-12-10T05:09:38;101123.09;;;-7.66;100.00
64352;BME280;50680;52.626;-8.668;2022-12-10T05:12:05;101121.28;;;-7.70;100.00
64352;BME280;50680;52.626;-8.668;2022-12-10T05:14:32;101113.66;;;-7.70;100.00
64352;BME280;50680;52.626;-8.668;2022-12-10T05:16:59;101117.88;;;-7.71;100.00
64352;BME280;50680;52.626;-8.668;2022-12-10T05:19:26;101113.78;;;-7.64;100.00
64352;BME280;50680;52.626;-8.668;2022-12-10T05:21:53;101111.47;;;-7.53;100.00
64352;BME280;50680;52.626;-8.668;2022-12-10T05:24:38;101110.44;;;-7.21;100.00
64352;BME280;50680;52.626;-8.668;2022-12-10T05:27:05;101101.09;;;-7.20;100.00
64352;BME280;50680;52.626;-8.668;2022-12-10T05:29:32;101107.06;;;-7.20;100.00
64352;BME280;50680;52.626;-8.668;2022-12-10T05:31:59;101117.94;;;-7.27;100.00
64352;BME280;50680;52.626;-8.668;2022-12-10T05:34:25;101105.09;;;-7.33;100.00
64352;BME280;50680;52.626;-8.668;2022-12-10T05:36:52;101109.38;;;-7.30;100.00
64352;BME280;50680;52.626;-8.668;2022-12-10T05:39:19;101108.72;;;-7.22;100.00
64352;BME280;50680;52.626;-8.668;2022-12-10T05:41:46;101107.47;;;-6.98;100.00
64352;BME280;50680;52.626;-8.668;2022-12-10T05:44:13;101097.47;;;-6.87;100.00
64352;BME280;50680;52.626;-8.668;2022-12-10T05:46:40;101089.97;;;-6.79;100.00
64352;BME280;50680;52.626;-8.668;2022-12-10T05:49:07;101088.38;;;-6.74;100.00
64352;BME280;50680;52.626;-8.668;2022-12-10T05:51:36;101087.69;;;-6.64;100.00
64352;BME280;50680;52.626;-8.668;2022-12-10T05:54:05;101093.97;;;-6.45;100.00
64352;BME280;50680;52.626;-8.668;2022-12-10T05:56:32;101084.69;;;-6.38;100.00
64352;BME280;50680;52.626;-8.668;2022-12-10T05:59:01;101076.13;;;-6.42;100.00
64352;BME280;50680;52.626;-8.668;2022-12-10T06:01:31;101077.91;;;-6.38;100.00
64352;BME280;50680;52.626;-8.668;2022-12-10T06:03:59;101078.72;;;-6.39;100.00
64352;BME280;50680;52.626;-8.668;2022-12-10T06:06:29;101077.22;;;-6.28;100.00
64352;BME280;50680;52.626;-8.668;2022-12-10T06:08:57;101079.97;;;-6.14;100.00
64352;BME280;50680;52.626;-8.668;2022-12-10T06:11:24;101074.16;;;-6.05;100.00
64352;BME280;50680;52.626;-8.668;2022-12-10T06:13:54;101080.41;;;-5.83;100.00
64352;BME280;50680;52.626;-8.668;2022-12-10T06:16:25;101076.53;;;-5.52;100.00
64352;BME280;50680;52.626;-8.668;2022-12-10T06:18:52;101070.84;;;-5.29;100.00
64352;BME280;50680;52.626;-8.668;2022-12-10T06:21:20;101082.91;;;-5.17;100.00
64352;BME280;50680;52.626;-8.668;2022-12-10T06:23:48;101084.75;;;-5.02;100.00
64352;BME280;50680;52.626;-8.668;2022-12-10T06:26:20;101093.44;;;-4.89;100.00
64352;BME280;50680;52.626;-8.668;2022-12-10T06:28:48;101088.31;;;-4.89;100.00
64352;BME280;50680;52.626;-8.668;2022-12-10T06:31:15;101093.41;;;-4.88;100.00
64352;BME280;50680;52.626;-8.668;2022-12-10T06:33:43;101084.91;;;-4.87;100.00
64352;BME280;50680;52.626;-8.668;2022-12-10T06:36:11;101088.28;;;-4.93;100.00
64352;BME280;50680;52.626;-8.668;2022-12-10T06:38:39;101093.38;;;-4.94;100.00
64352;BME280;50680;52.626;-8.668;2022-12-10T06:41:08;101094.28;;;-4.89;100.00
64352;BME280;50680;52.626;-8.668;2022-12-10T06:43:36;101093.59;;;-4.71;100.00
64352;BME280;50680;52.626;-8.668;2022-12-10T06:46:04;101092.00;;;-4.60;100.00
64352;BME280;50680;52.626;-8.668;2022-12-10T06:48:32;101086.94;;;-4.54;100.00
64352;BME280;50680;52.626;-8.668;2022-12-10T06:50:59;101090.38;;;-4.48;100.00
64352;BME280;50680;52.626;-8.668;2022-12-10T06:53:25;101087.88;;;-4.44;100.00
64352;BME280;50680;52.626;-8.668;2022-12-10T06:55:52;101088.75;;;-4.40;100.00
64352;BME280;50680;52.626;-8.668;2022-12-10T06:58:19;101095.63;;;-4.38;100.00
64352;BME280;50680;52.626;-8.668;2022-12-10T07:00:46;101087.06;;;-4.38;100.00
64352;BME280;50680;52.626;-8.668;2022-12-10T07:03:13;101091.31;;;-4.40;100.00
64352;BME280;50680;52.626;-8.668;2022-12-10T07:05:39;101090.38;;;-4.48;100.00
64352;BME280;50680;52.626;-8.668;2022-12-10T07:08:06;101072.44;;;-4.53;100.00
64352;BME280;50680;52.626;-8.668;2022-12-10T07:10:33;101071.50;;;-4.63;100.00
64352;BME280;50680;52.626;-8.668;2022-12-10T07:13:00;101066.31;;;-4.69;100.00
64352;BME280;50680;52.626;-8.668;2022-12-10T07:15:27;101074.84;;;-4.70;100.00
64352;BME280;50680;52.626;-8.668;2022-12-10T07:17:54;101072.34;;;-4.67;100.00
64352;BME280;50680;52.626;-8.668;2022-12-10T07:20:21;101075.78;;;-4.63;100.00
64352;BME280;50680;52.626;-8.668;2022-12-10T07:22:48;101077.53;;;-4.56;100.00
64352;BME280;50680;52.626;-8.668;2022-12-10T07:25:15;101081.94;;;-4.38;100.00
64352;BME280;50680;52.626;-8.668;2022-12-10T07:27:42;101076.97;;;-4.20;100.00
64352;BME280;50680;52.626;-8.668;2022-12-10T07:30:09;101077.09;;;-3.97;100.00
64352;BME280;50680;52.626;-8.668;2022-12-10T07:32:36;101078.94;;;-3.75;100.00
64352;BME280;50680;52.626;-8.668;2022-12-10T07:35:03;101085.91;;;-3.53;100.00
64352;BME280;50680;52.626;-8.668;2022-12-10T07:37:30;101087.69;;;-3.33;100.00
64352;BME280;50680;52.626;-8.668;2022-12-10T07:39:57;101091.16;;;-3.17;100.00
64352;BME280;50680;52.626;-8.668;2022-12-10T07:42:24;101089.47;;;-3.11;100.00
64352;BME280;50680;52.626;-8.668;2022-12-10T07:44:51;101087.78;;;-3.06;100.00
64352;BME280;50680;52.626;-8.668;2022-12-10T07:47:17;101082.66;;;-3.06;100.00
64352;BME280;50680;52.626;-8.668;2022-12-10T07:49:44;101085.19;;;-3.07;100.00
64352;BME280;50680;52.626;-8.668;2022-12-10T07:52:11;101075.78;;;-3.13;100.00
64352;BME280;50680;52.626;-8.668;2022-12-10T07:54:38;101066.38;;;-3.22;100.00
64352;BME280;50680;52.626;-8.668;2022-12-10T07:57:05;101078.28;;;-3.30;100.00
64352;BME280;50680;52.626;-8.668;2022-12-10T07:59:31;101073.16;;;-3.39;100.00
64352;BME280;50680;52.626;-8.668;2022-12-10T08:01:58;101070.53;;;-3.47;100.00
64352;BME280;50680;52.626;-8.668;2022-12-10T08:04:32;101078.19;;;-3.56;100.00
64352;BME280;50680;52.626;-8.668;2022-12-10T08:06:59;101069.63;;;-3.63;100.00
64352;BME280;50680;52.626;-8.668;2022-12-10T08:09:26;101069.56;;;-3.69;100.00
64352;BME280;50680;52.626;-8.668;2022-12-10T08:11:52;101069.53;;;-3.80;100.00
64352;BME280;50680;52.626;-8.668;2022-12-10T08:14:19;101066.88;;;-3.93;100.00
64352;BME280;50680;52.626;-8.668;2022-12-10T08:16:46;101074.56;;;-3.95;100.00
64352;BME280;50680;52.626;-8.668;2022-12-10T08:19:13;101067.75;;;-3.94;100.00
64352;BME280;50680;52.626;-8.668;2022-12-10T08:21:47;101074.53;;;-3.98;100.00
64352;BME280;50680;52.626;-8.668;2022-12-10T08:24:14;101082.16;;;-4.07;100.00
64352;BME280;50680;52.626;-8.668;2022-12-10T08:26:41;101078.66;;;-4.22;100.00
64352;BME280;50680;52.626;-8.668;2022-12-10T08:29:07;101085.47;;;-4.24;100.00
64352;BME280;50680;52.626;-8.668;2022-12-10T08:31:34;101079.53;;;-4.20;100.00
64352;BME280;50680;52.626;-8.668;2022-12-10T08:34:05;101070.13;;;-4.19;100.00
64352;BME280;50680;52.626;-8.668;2022-12-10T08:36:37;101067.56;;;-4.24;100.00
64352;BME280;50680;52.626;-8.668;2022-12-10T08:39:04;101083.75;;;-4.25;100.00
64352;BME280;50680;52.626;-8.668;2022-12-10T08:41:31;101076.91;;;-4.26;100.00
64352;BME280;50680;52.626;-8.668;2022-12-10T08:43:58;101067.44;;;-4.36;100.00
64352;BME280;50680;52.626;-8.668;2022-12-10T08:46:24;101075.13;;;-4.36;100.00
64352;BME280;50680;52.626;-8.668;2022-12-10T08:48:53;101080.22;;;-4.41;100.00
64352;BME280;50680;52.626;-8.668;2022-12-10T08:51:20;101068.22;;;-4.49;100.00
64352;BME280;50680;52.626;-8.668;2022-12-10T08:53:47;101082.66;;;-4.56;100.00
64352;BME280;50680;52.626;-8.668;2022-12-10T08:56:14;101089.41;;;-4.64;100.00
64352;BME280;50680;52.626;-8.668;2022-12-10T08:58:41;101093.63;;;-4.68;100.00
64352;BME280;50680;52.626;-8.668;2022-12-10T09:01:13;101102.13;;;-4.72;100.00
64352;BME280;50680;52.626;-8.668;2022-12-10T09:03:41;101098.66;;;-4.74;100.00
64352;BME280;50680;52.626;-8.668;2022-12-10T09:06:11;101091.06;;;-4.68;100.00
64352;BME280;50680;52.626;-8.668;2022-12-10T09:08:39;101081.69;;;-4.66;100.00
64352;BME280;50680;52.626;-8.668;2022-12-10T09:11:16;101076.59;;;-4.66;100.00
64352;BME280;50680;52.626;-8.668;2022-12-10T09:13:43;101078.34;;;-4.59;100.00
64352;BME280;50680;52.626;-8.668;2022-12-10T09:16:11;101084.34;;;-4.58;100.00
64352;BME280;50680;52.626;-8.668;2022-12-10T09:18:39;101067.25;;;-4.59;100.00
64352;BME280;50680;52.626;-8.668;2022-12-10T09:21:07;101077.56;;;-4.53;100.00
64352;BME280;50680;52.626;-8.668;2022-12-10T09:23:34;101073.38;;;-4.43;100.00
64352;BME280;50680;52.626;-8.668;2022-12-10T09:26:05;101075.22;;;-4.27;100.00
64352;BME280;50680;52.626;-8.668;2022-12-10T09:28:33;101080.44;;;-4.08;100.00
64352;BME280;50680;52.626;-8.668;2022-12-10T09:31:01;101070.31;;;-3.90;100.00
64352;BME280;50680;52.626;-8.668;2022-12-10T09:33:28;101084.06;;;-3.72;100.00
64352;BME280;50680;52.626;-8.668;2022-12-10T09:35:55;101082.47;;;-3.52;100.00
64352;BME280;50680;52.626;-8.668;2022-12-10T09:38:23;101092.81;;;-3.33;100.00
64352;BME280;50680;52.626;-8.668;2022-12-10T09:43:49;101089.50;;;-2.98;100.00
64352;BME280;50680;52.626;-8.668;2022-12-10T09:51:55;101096.41;;;-2.57;100.00
64352;BME280;50680;52.626;-8.668;2022-12-10T09:54:26;101098.13;;;-2.44;100.00
64352;BME280;50680;52.626;-8.668;2022-12-10T09:56:55;101087.88;;;-2.35;100.00
64352;BME280;50680;52.626;-8.668;2022-12-10T09:59:38;101081.03;;;-2.27;100.00
64352;BME280;50680;52.626;-8.668;2022-12-10T10:02:21;101074.16;;;-2.23;100.00
64352;BME280;50680;52.626;-8.668;2022-12-10T10:04:50;101078.41;;;-2.03;100.00
64352;BME280;50680;52.626;-8.668;2022-12-10T10:07:26;101081.81;;;-1.91;100.00
64352;BME280;50680;52.626;-8.668;2022-12-10T10:09:58;101081.78;;;-1.75;100.00
64352;BME280;50680;52.626;-8.668;2022-12-10T10:12:31;101086.03;;;-1.62;100.00
64352;BME280;50680;52.626;-8.668;2022-12-10T10:15:10;101092.84;;;-1.50;100.00
64352;BME280;50680;52.626;-8.668;2022-12-10T10:17:38;101093.66;;;-1.37;100.00
64352;BME280;50680;52.626;-8.668;2022-12-10T10:20:06;101093.63;;;-1.29;100.00
64352;BME280;50680;52.626;-8.668;2022-12-10T10:22:33;101095.31;;;-1.27;100.00
64352;BME280;50680;52.626;-8.668;2022-12-10T10:25:00;101094.47;;;-1.23;100.00
64352;BME280;50680;52.626;-8.668;2022-12-10T10:27:30;101093.59;;;-1.26;100.00
64352;BME280;50680;52.626;-8.668;2022-12-10T10:30:01;101090.16;;;-1.24;100.00
64352;BME280;50680;52.626;-8.668;2022-12-10T10:35:05;101087.59;;;-1.19;100.00
64352;BME280;50680;52.626;-8.668;2022-12-10T10:40:02;101096.09;;;-1.06;100.00
64352;BME280;50680;52.626;-8.668;2022-12-10T10:42:42;101090.91;;;-0.99;100.00
64352;BME280;50680;52.626;-8.668;2022-12-10T10:45:36;101092.59;;;-0.91;100.00
64352;BME280;50680;52.626;-8.668;2022-12-10T10:48:14;101087.38;;;-0.81;100.00
64352;BME280;50680;52.626;-8.668;2022-12-10T10:50:46;101100.16;;;-0.70;100.00
64352;BME280;50680;52.626;-8.668;2022-12-10T10:55:48;101099.16;;;-0.49;100.00
64352;BME280;50680;52.626;-8.668;2022-12-10T10:58:19;101092.25;;;-0.44;100.00
64352;BME280;50680;52.626;-8.668;2022-12-10T11:00:53;101084.50;;;-0.39;100.00
64352;BME280;50680;52.626;-8.668;2022-12-10T11:03:20;101086.97;;;-0.28;100.00
64352;BME280;50680;52.626;-8.668;2022-12-10T11:05:48;101076.63;;;-0.22;100.00
64352;BME280;50680;52.626;-8.668;2022-12-10T11:08:19;101080.84;;;-0.16;100.00
64352;BME280;50680;52.626;-8.668;2022-12-10T11:10:49;101079.94;;;-0.11;100.00
64352;BME280;50680;52.626;-8.668;2022-12-10T11:13:25;101084.22;;;-0.08;100.00
64352;BME280;50680;52.626;-8.668;2022-12-10T11:15:56;101074.75;;;-0.08;100.00
64352;BME280;50680;52.626;-8.668;2022-12-10T11:18:32;101085.13;;;-0.14;100.00
64352;BME280;50680;52.626;-8.668;2022-12-10T11:21:25;101083.53;;;-0.24;100.00
64352;BME280;50680;52.626;-8.668;2022-12-10T11:23:53;101086.03;;;-0.20;100.00
64352;BME280;50680;52.626;-8.668;2022-12-10T11:31:47;101071.34;;;-0.07;100.00
64352;BME280;50680;52.626;-8.668;2022-12-10T11:37:12;101062.63;;;0.04;100.00
64352;BME280;50680;52.626;-8.668;2022-12-10T11:48:20;101056.25;;;0.37;100.00
64352;BME280;50680;52.626;-8.668;2022-12-10T11:50:57;101061.38;;;0.40;100.00
64352;BME280;50680;52.626;-8.668;2022-12-10T11:53:49;101067.31;;;0.47;100.00
64352;BME280;50680;52.626;-8.668;2022-12-10T12:02:47;101060.13;;;0.70;100.00
64352;BME280;50680;52.626;-8.668;2022-12-10T12:05:31;101050.59;;;0.75;100.00
64352;BME280;50680;52.626;-8.668;2022-12-10T12:16:31;101045.88;;;1.05;100.00
64352;BME280;50680;52.626;-8.668;2022-12-10T12:19:09;101045.81;;;1.11;100.00
64352;BME280;50680;52.626;-8.668;2022-12-10T12:21:40;101046.56;;;1.18;100.00
64352;BME280;50680;52.626;-8.668;2022-12-10T12:24:40;101048.22;;;1.21;100.00
64352;BME280;50680;52.626;-8.668;2022-12-10T12:27:38;101043.84;;;1.27;100.00
64352;BME280;50680;52.626;-8.668;2022-12-10T12:30:16;101047.13;;;1.37;100.00
64352;BME280;50680;52.626;-8.668;2022-12-10T12:33:18;101055.63;;;1.45;100.00
64352;BME280;50680;52.626;-8.668;2022-12-10T12:35:51;101051.03;;;1.63;100.00
64352;BME280;50680;52.626;-8.668;2022-12-10T12:41:06;101043.66;;;1.90;100.00
64352;BME280;50680;52.626;-8.668;2022-12-10T12:46:11;101046.47;;;1.77;100.00
64352;BME280;50680;52.626;-8.668;2022-12-10T12:48:47;101035.34;;;1.74;100.00
64352;BME280;50680;52.626;-8.668;2022-12-10T12:51:23;101031.91;;;1.73;100.00
64352;BME280;50680;52.626;-8.668;2022-12-10T12:53:53;101041.91;;;1.90;100.00
64352;BME280;50680;52.626;-8.668;2022-12-10T13:08:30;101047.69;;;2.50;100.00
64352;BME280;50680;52.626;-8.668;2022-12-10T13:11:19;101031.94;;;2.59;100.00
64352;BME280;50680;52.626;-8.668;2022-12-10T13:32:22;101033.41;;;3.46;100.00
64352;BME280;50680;52.626;-8.668;2022-12-10T13:46:27;101026.34;;;3.52;100.00
64352;BME280;50680;52.626;-8.668;2022-12-10T13:49:04;101034.16;;;3.51;100.00
64352;BME280;50680;52.626;-8.668;2022-12-10T13:51:45;101037.66;;;3.50;100.00
64352;BME280;50680;52.626;-8.668;2022-12-10T13:59:37;101031.63;;;3.48;100.00
64352;BME280;50680;52.626;-8.668;2022-12-10T14:07:44;101028.25;;;3.46;100.00
64352;BME280;50680;52.626;-8.668;2022-12-10T14:10:15;101031.72;;;3.46;100.00
64352;BME280;50680;52.626;-8.668;2022-12-10T14:12:43;101030.84;;;3.46;100.00
64352;BME280;50680;52.626;-8.668;2022-12-10T14:15:22;101030.84;;;3.46;100.00
64352;BME280;50680;52.626;-8.668;2022-12-10T14:17:59;101034.19;;;3.49;100.00
64352;BME280;50680;52.626;-8.668;2022-12-10T14:20:30;101024.69;;;3.50;100.00
64352;BME280;50680;52.626;-8.668;2022-12-10T14:23:03;101031.59;;;3.49;100.00
64352;BME280;50680;52.626;-8.668;2022-12-10T14:25:51;101025.56;;;3.49;100.00
64352;BME280;50680;52.626;-8.668;2022-12-10T14:28:18;101033.38;;;3.47;100.00
64352;BME280;50680;52.626;-8.668;2022-12-10T14:30:48;101032.63;;;3.44;100.00
64352;BME280;50680;52.626;-8.668;2022-12-10T14:33:18;101020.69;;;3.36;100.00
64352;BME280;50680;52.626;-8.668;2022-12-10T14:35:49;101024.28;;;3.32;100.00
64352;BME280;50680;52.626;-8.668;2022-12-10T14:38:23;101028.72;;;3.27;100.00
64352;BME280;50680;52.626;-8.668;2022-12-10T14:40:54;101018.50;;;3.19;100.00
64352;BME280;50680;52.626;-8.668;2022-12-10T14:43:24;101024.69;;;3.14;100.00
64352;BME280;50680;52.626;-8.668;2022-12-10T14:45:58;101027.56;;;3.01;100.00
64352;BME280;50680;52.626;-8.668;2022-12-10T14:48:26;101032.13;;;2.90;100.00
64352;BME280;50680;52.626;-8.668;2022-12-10T14:50:56;101030.66;;;2.78;100.00